KLGA/LGA METAR and TAF weather

Enter ICAO airport designator
Station Type Date Time Source
KLGA METAR 2019/05/25 14:51 UTC NOAA

KLGA 251451Z 19009KT 10SM FEW030 SCT200 BKN250 18/09 A3024 RMK AO2 SLP239 T01830089 51003 $


Station Type Date Time Source
KLGA Decoded METAR 2019/05/25 14:51 UTC NOAA

NEW YORK LA GUARDIA AIRPORT , NY, United States (KLGA) 40-47N 73-53W 11M
May 25, 2019 - 10:51 AM EDT / 2019.05.25 1451 UTC
Wind: from the S (190 degrees) at 10 MPH (9 KT):0
Visibility: 10 mile(s):0
Sky conditions: mostly cloudy
Temperature: 64.9 F (18.3 C)
Dew Point: 48.0 F (8.9 C)
Relative Humidity: 54%
Pressure (altimeter): 30.24 in. Hg (1024 hPa)
Pressure tendency: 0.01 inches (0.3 hPa) higher than three hours ago
ob: KLGA 251451Z 19009KT 10SM FEW030 SCT200 BKN250 18/09 A3024 RMK AO2 SLP239 T01830089 51003
cycle: 15

Station Type Date Time Source
KLGA TAF 2019/05/25 15:51 UTC NOAA

TAF
AMD KLGA 251448Z 2515/2618 17009KT P6SM FEW040 SCT250
FM251800 18013KT P6SM SCT050 BKN120
FM260000 19010KT P6SM BKN050 OVC100
FM260400 19009KT P6SM VCSH SCT025 OVC040
TEMPO 2605/2609 4SM SHRA BKN025
FM260900 22009KT P6SM BKN020 OVC040
FM261200 29007KT P6SM BKN015 BKN040
FM261500 24009KT P6SM SCT020 SCT050

Example: see airport list